createdAt,value
2023-04-23T00:00:13.272Z,100.00
2023-04-23T00:02:42.486Z,99.65
2023-04-23T00:05:12.845Z,97.94
2023-04-23T00:07:41.041Z,100.00
2023-04-23T00:10:11.462Z,93.41
2023-04-23T00:12:39.783Z,88.27
2023-04-23T00:15:08.596Z,87.51
2023-04-23T00:17:36.103Z,86.62
2023-04-23T00:20:03.656Z,87.84
2023-04-23T00:22:31.155Z,99.18
2023-04-23T00:24:59.083Z,100.00
2023-04-23T00:27:27.980Z,100.00
2023-04-23T00:29:55.499Z,100.00
2023-04-23T00:32:23.519Z,100.00
2023-04-23T00:34:51.014Z,100.00
2023-04-23T00:37:18.632Z,97.96
2023-04-23T00:39:46.105Z,94.33
2023-04-23T00:42:13.803Z,93.59
2023-04-23T00:44:42.911Z,93.46
2023-04-23T00:47:12.186Z,96.43
2023-04-23T00:49:40.229Z,98.78
2023-04-23T00:52:07.718Z,95.83
2023-04-23T00:54:35.212Z,96.10
2023-04-23T00:57:03.626Z,97.34
2023-04-23T00:59:32.581Z,97.73
2023-04-23T01:02:01.801Z,99.18
2023-04-23T01:04:32.921Z,100.00
2023-04-23T01:07:01.514Z,98.70
2023-04-23T01:09:29.283Z,100.00
2023-04-23T01:11:58.609Z,99.65
2023-04-23T01:14:27.264Z,96.95
2023-04-23T01:16:54.817Z,94.96
2023-04-23T01:19:23.696Z,94.85
2023-04-23T01:21:52.980Z,94.13
2023-04-23T01:24:21.835Z,93.49
2023-04-23T01:26:49.351Z,94.26
2023-04-23T01:29:17.234Z,94.10
2023-04-23T01:31:45.769Z,94.02
2023-04-23T01:34:14.167Z,93.36
2023-04-23T01:36:42.554Z,94.17
2023-04-23T01:39:10.276Z,94.11
2023-04-23T01:41:39.572Z,94.53
2023-04-23T01:44:07.288Z,94.01
2023-04-23T01:46:35.181Z,93.97
2023-04-23T01:49:02.902Z,94.17
2023-04-23T01:51:30.978Z,93.56
2023-04-23T01:53:58.465Z,93.20
2023-04-23T01:56:28.440Z,94.29
2023-04-23T01:58:57.542Z,94.78
2023-04-23T02:01:25.021Z,96.27
2023-04-23T02:03:52.947Z,98.02
2023-04-23T02:06:20.499Z,100.00
2023-04-23T02:08:47.964Z,100.00
2023-04-23T02:11:15.480Z,100.00
2023-04-23T02:13:42.982Z,100.00
2023-04-23T02:16:12.994Z,100.00
2023-04-23T02:18:41.073Z,100.00
2023-04-23T02:21:08.575Z,100.00
2023-04-23T02:23:36.089Z,100.00
2023-04-23T02:26:03.595Z,100.00
2023-04-23T02:28:31.373Z,100.00
2023-04-23T02:30:58.916Z,100.00
2023-04-23T02:33:27.800Z,100.00
2023-04-23T02:35:55.271Z,100.00
2023-04-23T02:38:22.784Z,100.00
2023-04-23T02:40:50.228Z,100.00
2023-04-23T02:43:18.145Z,100.00
2023-04-23T02:45:45.753Z,100.00
2023-04-23T02:48:13.551Z,100.00
2023-04-23T02:50:42.361Z,100.00
2023-04-23T02:53:09.830Z,100.00
2023-04-23T02:55:37.314Z,100.00
2023-04-23T02:58:04.814Z,100.00
2023-04-23T03:00:32.460Z,100.00
2023-04-23T03:03:00.043Z,100.00
2023-04-23T03:05:27.701Z,100.00
2023-04-23T03:07:56.506Z,98.40
2023-04-23T03:10:24.073Z,96.61
2023-04-23T03:12:51.605Z,97.80
2023-04-23T03:15:19.144Z,99.13
2023-04-23T03:17:46.800Z,95.92
2023-04-23T03:20:15.900Z,94.10
2023-04-23T03:22:43.413Z,94.54
2023-04-23T03:25:13.029Z,93.57
2023-04-23T03:27:41.239Z,93.66
2023-04-23T03:30:10.309Z,91.36
2023-04-23T03:32:37.902Z,90.05
2023-04-23T03:35:06.570Z,90.80
2023-04-23T03:37:34.058Z,87.22
2023-04-23T03:40:03.304Z,89.61
2023-04-23T03:42:32.149Z,87.04
2023-04-23T03:44:59.894Z,86.37
2023-04-23T03:47:27.856Z,88.49
2023-04-23T03:49:55.931Z,87.85
2023-04-23T03:52:23.519Z,85.61
2023-04-23T03:54:51.019Z,84.91
2023-04-23T03:57:18.529Z,85.68
2023-04-23T03:59:47.370Z,87.10
2023-04-23T04:02:15.076Z,92.46
2023-04-23T04:04:46.202Z,95.90
2023-04-23T04:07:14.164Z,100.00
2023-04-23T04:09:41.633Z,100.00
2023-04-23T04:12:09.089Z,100.00
2023-04-23T04:14:36.572Z,100.00
2023-04-23T04:17:05.445Z,100.00
2023-04-23T04:19:33.002Z,100.00
2023-04-23T04:22:02.568Z,100.00
2023-04-23T04:24:32.283Z,100.00
2023-04-23T04:27:00.139Z,100.00
2023-04-23T04:29:28.123Z,100.00
2023-04-23T04:31:56.426Z,100.00
2023-04-23T04:34:25.264Z,100.00
2023-04-23T04:36:53.777Z,100.00
2023-04-23T04:39:21.332Z,100.00
2023-04-23T04:41:48.867Z,100.00
2023-04-23T04:44:16.516Z,100.00
2023-04-23T04:46:44.083Z,100.00
2023-04-23T04:49:12.229Z,100.00
2023-04-23T04:51:42.261Z,100.00
2023-04-23T04:54:09.747Z,100.00
2023-04-23T04:56:37.381Z,100.00
2023-04-23T04:59:04.916Z,100.00
2023-04-23T05:01:33.294Z,100.00
2023-04-23T05:04:01.008Z,99.43
2023-04-23T05:06:29.210Z,100.00
2023-04-23T05:08:57.986Z,100.00
2023-04-23T05:11:25.647Z,100.00
2023-04-23T05:13:53.113Z,100.00
2023-04-23T05:16:21.208Z,100.00
2023-04-23T05:18:48.775Z,100.00
2023-04-23T05:21:16.542Z,100.00
2023-04-23T05:23:44.014Z,100.00
2023-04-23T05:26:12.842Z,100.00
2023-04-23T05:28:40.525Z,100.00
2023-04-23T05:31:08.004Z,100.00
2023-04-23T05:33:46.403Z,100.00
2023-04-23T05:36:16.523Z,100.00
2023-04-23T05:38:44.079Z,100.00
2023-04-23T05:41:12.970Z,100.00
2023-04-23T05:43:40.438Z,100.00
2023-04-23T05:46:08.086Z,100.00
2023-04-23T05:48:35.633Z,100.00
2023-04-23T05:51:03.280Z,100.00
2023-04-23T05:53:30.804Z,100.00
2023-04-23T05:55:58.430Z,100.00
2023-04-23T05:58:27.263Z,100.00
2023-04-23T06:00:55.192Z,100.00
2023-04-23T06:03:22.764Z,100.00
2023-04-23T06:05:50.546Z,100.00
2023-04-23T06:08:18.328Z,100.00
2023-04-23T06:10:46.004Z,100.00
2023-04-23T06:13:13.474Z,100.00
2023-04-23T06:15:42.274Z,100.00
2023-04-23T06:18:10.387Z,100.00
2023-04-23T06:20:37.856Z,100.00
2023-04-23T06:23:06.469Z,100.00
2023-04-23T06:25:33.952Z,100.00
2023-04-23T06:28:01.396Z,100.00
2023-04-23T06:30:28.830Z,100.00
2023-04-23T06:32:57.677Z,100.00
2023-04-23T06:35:25.199Z,100.00
2023-04-23T06:37:52.638Z,100.00
2023-04-23T06:40:20.196Z,100.00
2023-04-23T06:42:47.650Z,100.00
2023-04-23T06:45:15.578Z,100.00
2023-04-23T06:47:43.078Z,100.00
2023-04-23T06:50:12.097Z,100.00
2023-04-23T06:52:39.691Z,100.00
2023-04-23T06:55:08.661Z,100.00
2023-04-23T06:57:36.386Z,100.00
2023-04-23T07:00:04.518Z,100.00
2023-04-23T07:02:32.054Z,100.00
2023-04-23T07:04:59.555Z,100.00
2023-04-23T07:07:28.325Z,100.00
2023-04-23T07:09:56.490Z,100.00
2023-04-23T07:12:23.999Z,100.00
2023-04-23T07:14:53.469Z,100.00
2023-04-23T07:17:21.565Z,100.00
2023-04-23T07:19:49.231Z,100.00
2023-04-23T07:22:17.382Z,100.00
2023-04-23T07:24:46.167Z,100.00
2023-04-23T07:27:13.656Z,100.00
2023-04-23T07:29:41.085Z,100.00
2023-04-23T07:32:08.583Z,100.00
2023-04-23T07:34:38.579Z,100.00
2023-04-23T07:37:06.177Z,100.00
2023-04-23T07:39:34.292Z,100.00
2023-04-23T07:42:03.149Z,100.00
2023-04-23T07:44:30.703Z,100.00
2023-04-23T07:46:58.218Z,100.00
2023-04-23T07:49:25.943Z,100.00
2023-04-23T07:51:53.436Z,100.00
2023-04-23T07:54:21.031Z,100.00
2023-04-23T07:56:48.508Z,100.00
2023-04-23T07:59:17.395Z,100.00
2023-04-23T08:01:44.926Z,100.00
2023-04-23T08:04:14.092Z,100.00
2023-04-23T08:06:41.874Z,100.00
2023-04-23T08:09:09.973Z,100.00
2023-04-23T08:11:37.402Z,100.00
2023-04-23T08:14:04.866Z,100.00
2023-04-23T08:16:35.253Z,100.00
2023-04-23T08:19:06.206Z,100.00
2023-04-23T08:21:34.558Z,100.00
2023-04-23T08:24:02.837Z,100.00
2023-04-23T08:26:30.932Z,100.00
2023-04-23T08:29:00.525Z,100.00
2023-04-23T08:31:28.063Z,100.00
2023-04-23T08:33:57.455Z,100.00
2023-04-23T08:36:25.541Z,100.00
2023-04-23T08:38:53.048Z,100.00
2023-04-23T08:41:24.377Z,100.00
2023-04-23T08:43:59.653Z,100.00
2023-04-23T08:46:31.494Z,100.00
2023-04-23T08:49:03.816Z,100.00
2023-04-23T08:51:32.695Z,100.00
2023-04-23T08:54:05.116Z,100.00
2023-04-23T08:56:33.536Z,100.00
2023-04-23T08:59:03.872Z,100.00
2023-04-23T09:01:31.807Z,100.00
2023-04-23T09:04:02.265Z,100.00
2023-04-23T09:06:32.171Z,100.00
2023-04-23T09:09:00.602Z,100.00
2023-04-23T09:11:28.773Z,100.00
2023-04-23T09:13:57.635Z,100.00
2023-04-23T09:16:25.198Z,100.00
2023-04-23T09:18:53.305Z,100.00
2023-04-23T09:21:22.631Z,100.00
2023-04-23T09:23:52.857Z,100.00
2023-04-23T09:26:21.661Z,100.00
2023-04-23T09:28:50.355Z,100.00
2023-04-23T09:31:21.634Z,100.00
2023-04-23T09:33:52.296Z,100.00
2023-04-23T09:36:23.667Z,100.00
2023-04-23T09:38:51.430Z,100.00
2023-04-23T09:41:23.307Z,100.00
2023-04-23T09:43:50.758Z,100.00
2023-04-23T09:46:18.231Z,100.00
2023-04-23T09:48:45.922Z,100.00
2023-04-23T09:51:14.890Z,100.00
2023-04-23T09:53:45.841Z,100.00
2023-04-23T09:56:13.366Z,100.00
2023-04-23T09:58:40.869Z,100.00
2023-04-23T10:01:09.566Z,100.00
2023-04-23T10:03:38.549Z,100.00
2023-04-23T10:06:17.354Z,100.00
2023-04-23T10:08:54.636Z,100.00
2023-04-23T10:11:22.951Z,100.00
2023-04-23T10:13:50.790Z,100.00
2023-04-23T10:16:24.374Z,100.00
2023-04-23T10:18:56.938Z,100.00
2023-04-23T10:21:33.983Z,100.00
2023-04-23T10:24:07.227Z,100.00
2023-04-23T10:26:36.429Z,100.00
2023-04-23T10:29:06.181Z,100.00
2023-04-23T10:31:34.718Z,100.00
2023-04-23T10:34:05.930Z,95.54
2023-04-23T10:36:34.625Z,91.81
2023-04-23T10:39:09.364Z,94.65
2023-04-23T10:41:40.633Z,95.80
2023-04-23T10:44:12.847Z,95.94
2023-04-23T10:46:52.078Z,94.55
2023-04-23T10:49:19.710Z,92.36
2023-04-23T10:52:18.045Z,90.83
2023-04-23T10:54:36.366Z,86.83
2023-04-23T10:57:07.162Z,86.58
2023-04-23T10:59:35.854Z,78.62
2023-04-23T11:02:08.246Z,76.80
2023-04-23T11:04:38.021Z,73.04
2023-04-23T11:07:07.665Z,71.21
2023-04-23T11:09:40.732Z,67.61
2023-04-23T11:12:12.492Z,69.12
2023-04-23T11:14:47.446Z,65.08
2023-04-23T11:17:16.752Z,61.26
2023-04-23T11:20:11.121Z,55.59
2023-04-23T11:22:40.078Z,49.56
2023-04-23T11:25:11.102Z,47.15
2023-04-23T11:27:43.138Z,48.04
2023-04-23T11:30:14.204Z,48.47
2023-04-23T11:32:42.201Z,48.35
2023-04-23T11:35:13.610Z,47.40
2023-04-23T11:37:42.211Z,49.56
2023-04-23T11:40:11.412Z,50.23
2023-04-23T11:42:46.605Z,52.06
2023-04-23T11:45:21.294Z,55.10
2023-04-23T11:47:50.614Z,55.01
2023-04-23T11:50:19.333Z,56.23
2023-04-23T11:52:47.188Z,56.29
2023-04-23T11:55:16.348Z,55.51
2023-04-23T11:57:46.869Z,51.38
2023-04-23T12:00:17.219Z,50.64
2023-04-23T12:02:54.996Z,50.65
2023-04-23T12:05:24.407Z,50.26
2023-04-23T12:07:52.872Z,50.86
2023-04-23T12:10:21.249Z,51.22
2023-04-23T12:12:53.836Z,53.18
2023-04-23T12:15:21.491Z,51.41
2023-04-23T12:17:50.098Z,49.71
2023-04-23T12:20:19.720Z,50.46
2023-04-23T12:22:47.232Z,46.27
2023-04-23T12:25:15.970Z,45.20
2023-04-23T12:27:45.645Z,45.82
2023-04-23T12:30:14.981Z,48.67
2023-04-23T12:32:42.570Z,46.08
2023-04-23T12:35:11.342Z,46.71
2023-04-23T12:37:38.856Z,44.18
2023-04-23T12:40:08.090Z,42.28
2023-04-23T12:42:36.743Z,42.27
2023-04-23T12:45:09.337Z,41.08
2023-04-23T12:47:38.342Z,42.51
2023-04-23T12:50:06.827Z,43.05
2023-04-23T12:52:34.283Z,43.50
2023-04-23T12:55:01.752Z,43.98
2023-04-23T12:57:29.214Z,44.57
2023-04-23T12:59:56.672Z,45.49
2023-04-23T13:02:25.740Z,44.64
2023-04-23T13:05:00.558Z,44.84
2023-04-23T13:07:28.117Z,44.94
2023-04-23T13:09:57.207Z,43.85
2023-04-23T13:12:24.709Z,43.13
2023-04-23T13:14:52.173Z,41.17
2023-04-23T13:17:19.655Z,42.40
2023-04-23T13:19:47.109Z,43.77
2023-04-23T13:22:15.896Z,43.08
2023-04-23T13:24:43.530Z,42.82
2023-04-23T13:27:11.973Z,43.27
2023-04-23T13:29:40.719Z,42.16
2023-04-23T13:32:08.570Z,41.86
2023-04-23T13:34:36.017Z,43.04
2023-04-23T13:37:05.704Z,43.26
2023-04-23T13:39:34.532Z,41.32
2023-04-23T13:42:09.545Z,41.47
2023-04-23T13:44:37.253Z,43.57
2023-04-23T13:47:04.850Z,45.54
2023-04-23T13:49:32.353Z,46.17
2023-04-23T13:52:04.206Z,46.14
2023-04-23T13:54:31.696Z,45.41
2023-04-23T13:57:00.957Z,45.40
2023-04-23T13:59:28.465Z,45.07
2023-04-23T14:01:55.935Z,44.97
2023-04-23T14:04:24.045Z,43.70
2023-04-23T14:06:51.817Z,41.14
2023-04-23T14:09:22.050Z,41.74
2023-04-23T14:11:49.653Z,41.07
2023-04-23T14:14:18.798Z,41.68
2023-04-23T14:16:46.265Z,41.30
2023-04-23T14:19:13.774Z,43.22
2023-04-23T14:21:41.709Z,42.23
2023-04-23T14:24:13.318Z,41.49
2023-04-23T14:26:48.602Z,39.90
2023-04-23T14:29:26.228Z,39.46
2023-04-23T14:31:53.886Z,40.23
2023-04-23T14:34:22.105Z,39.39
2023-04-23T14:36:49.791Z,40.94
2023-04-23T14:39:17.577Z,39.60
2023-04-23T14:41:45.093Z,39.29
2023-04-23T14:44:12.594Z,39.29
2023-04-23T14:46:41.540Z,39.15
2023-04-23T14:49:09.029Z,40.55
2023-04-23T14:51:37.416Z,37.77
2023-04-23T14:54:05.357Z,37.36
2023-04-23T14:56:32.874Z,37.90
2023-04-23T14:59:00.341Z,40.01
2023-04-23T15:01:28.265Z,41.18
2023-04-23T15:03:57.309Z,41.26
2023-04-23T15:06:24.841Z,41.56
2023-04-23T15:08:52.287Z,43.15
2023-04-23T15:11:19.966Z,42.99
2023-04-23T15:13:51.304Z,42.28
2023-04-23T15:16:47.477Z,42.66
2023-04-23T15:19:18.885Z,43.01
2023-04-23T15:21:46.816Z,43.29
2023-04-23T15:24:14.665Z,43.01
2023-04-23T15:26:42.333Z,43.19
2023-04-23T15:29:10.511Z,44.11
2023-04-23T15:31:38.638Z,43.84
2023-04-23T15:34:08.954Z,46.33
2023-04-23T15:36:38.520Z,46.20
2023-04-23T15:39:06.976Z,46.22
2023-04-23T15:41:37.502Z,48.17
2023-04-23T15:44:10.702Z,46.88
2023-04-23T15:46:38.350Z,47.24
2023-04-23T15:49:05.897Z,47.92
2023-04-23T15:51:33.762Z,49.05
2023-04-23T15:54:02.894Z,46.75
2023-04-23T15:56:30.419Z,46.18
2023-04-23T15:58:57.931Z,44.70
2023-04-23T16:01:27.295Z,44.99
2023-04-23T16:04:09.631Z,47.50
2023-04-23T16:06:38.261Z,49.73
2023-04-23T16:09:08.180Z,51.39
2023-04-23T16:11:36.456Z,50.66
2023-04-23T16:14:04.826Z,52.93
2023-04-23T16:16:32.539Z,54.13
2023-04-23T16:19:00.122Z,54.74
2023-04-23T16:21:28.350Z,53.36
2023-04-23T16:23:55.932Z,54.02
2023-04-23T16:26:24.813Z,55.36
2023-04-23T16:29:05.697Z,56.83
2023-04-23T16:31:39.247Z,53.35
2023-04-23T16:34:06.955Z,54.28
2023-04-23T16:36:34.646Z,53.13
2023-04-23T16:39:02.137Z,54.04
2023-04-23T16:41:31.557Z,54.88
2023-04-23T16:43:59.268Z,56.44
2023-04-23T16:46:30.001Z,57.51
2023-04-23T16:48:58.216Z,57.06
2023-04-23T16:51:26.361Z,59.03
2023-04-23T16:53:54.004Z,60.01
2023-04-23T16:56:21.634Z,61.75
2023-04-23T16:58:50.559Z,63.68
2023-04-23T17:01:18.499Z,65.93
2023-04-23T17:03:46.121Z,68.25
2023-04-23T17:06:29.440Z,69.24
2023-04-23T17:08:58.592Z,70.55
2023-04-23T17:11:26.787Z,72.80
2023-04-23T17:13:56.308Z,74.55
2023-04-23T17:16:25.673Z,76.85
2023-04-23T17:18:53.248Z,78.36
2023-04-23T17:21:20.916Z,76.66
2023-04-23T17:23:48.680Z,77.67
2023-04-23T17:26:16.439Z,76.68
2023-04-23T17:28:43.928Z,83.13
2023-04-23T17:31:12.858Z,86.06
2023-04-23T17:33:43.389Z,85.50
2023-04-23T17:36:11.198Z,88.41
2023-04-23T17:38:38.688Z,86.95
2023-04-23T17:41:06.449Z,85.33
2023-04-23T17:43:34.919Z,88.94
2023-04-23T17:46:03.085Z,88.35
2023-04-23T17:48:32.095Z,89.81
2023-04-23T17:50:59.696Z,91.02
2023-04-23T17:53:27.158Z,89.44
2023-04-23T17:55:58.500Z,89.25
2023-04-23T17:58:26.732Z,88.71
2023-04-23T18:00:54.334Z,91.69
2023-04-23T18:03:22.426Z,88.84
2023-04-23T18:05:51.531Z,89.10
2023-04-23T18:08:19.529Z,90.70
2023-04-23T18:10:47.166Z,88.97
2023-04-23T18:13:14.998Z,87.91
2023-04-23T18:15:43.401Z,87.58
2023-04-23T18:18:11.430Z,88.23
2023-04-23T18:20:40.157Z,89.15
2023-04-23T18:23:09.631Z,89.83
2023-04-23T18:25:37.173Z,90.24
2023-04-23T18:28:04.754Z,91.22
2023-04-23T18:30:32.420Z,91.93
2023-04-23T18:33:07.601Z,92.32
2023-04-23T18:35:35.080Z,91.57
2023-04-23T18:38:10.957Z,91.90
2023-04-23T18:40:39.763Z,92.77
2023-04-23T18:43:07.252Z,95.93
2023-04-23T18:45:34.689Z,100.00
2023-04-23T18:48:06.203Z,100.00
2023-04-23T18:50:41.951Z,100.00
2023-04-23T18:53:09.783Z,100.00
2023-04-23T18:55:37.560Z,100.00
2023-04-23T18:58:06.390Z,100.00
2023-04-23T19:00:33.943Z,100.00
2023-04-23T19:03:06.511Z,100.00
2023-04-23T19:05:36.929Z,100.00
2023-04-23T19:08:04.475Z,100.00
2023-04-23T19:10:31.935Z,100.00
2023-04-23T19:12:59.569Z,100.00
2023-04-23T19:15:28.473Z,100.00
2023-04-23T19:17:56.088Z,100.00
2023-04-23T19:20:23.867Z,100.00
2023-04-23T19:22:51.374Z,100.00
2023-04-23T19:25:18.920Z,100.00
2023-04-23T19:27:46.401Z,100.00
2023-04-23T19:30:14.218Z,99.59
2023-04-23T19:32:43.102Z,97.04
2023-04-23T19:35:11.590Z,96.88
2023-04-23T19:37:39.077Z,99.71
2023-04-23T19:40:07.877Z,100.00
2023-04-23T19:42:35.391Z,100.00
2023-04-23T19:45:03.122Z,100.00
2023-04-23T19:47:32.386Z,100.00
2023-04-23T19:50:01.396Z,100.00
2023-04-23T19:52:28.916Z,100.00
2023-04-23T19:54:56.399Z,100.00
2023-04-23T19:57:23.877Z,100.00
2023-04-23T19:59:51.380Z,100.00
2023-04-23T20:02:19.261Z,100.00
2023-04-23T20:04:47.000Z,100.00
2023-04-23T20:07:16.926Z,100.00
2023-04-23T20:09:44.732Z,100.00
2023-04-23T20:12:14.138Z,100.00
2023-04-23T20:14:42.560Z,100.00
2023-04-23T20:17:10.448Z,100.00
2023-04-23T20:19:38.317Z,100.00
2023-04-23T20:22:06.779Z,100.00
2023-04-23T20:24:38.020Z,100.00
2023-04-23T20:27:06.867Z,100.00
2023-04-23T20:29:34.397Z,100.00
2023-04-23T20:32:01.983Z,100.00
2023-04-23T20:34:29.444Z,100.00
2023-04-23T20:36:58.748Z,100.00
2023-04-23T20:39:26.325Z,100.00
2023-04-23T20:41:57.737Z,100.00
2023-04-23T20:44:25.758Z,100.00
2023-04-23T20:46:53.413Z,100.00
2023-04-23T20:49:21.384Z,100.00
2023-04-23T20:51:48.903Z,100.00
2023-04-23T20:54:16.406Z,100.00
2023-04-23T20:56:43.942Z,100.00
2023-04-23T20:59:12.757Z,100.00
2023-04-23T21:01:40.375Z,100.00
2023-04-23T21:04:08.088Z,100.00
2023-04-23T21:06:35.974Z,100.00
2023-04-23T21:09:04.590Z,100.00
2023-04-23T21:11:33.244Z,100.00
2023-04-23T21:14:01.551Z,100.00
2023-04-23T21:16:30.457Z,100.00
2023-04-23T21:18:57.928Z,100.00
2023-04-23T21:21:27.905Z,100.00
2023-04-23T21:23:55.780Z,100.00
2023-04-23T21:26:23.555Z,100.00
2023-04-23T21:28:51.131Z,100.00
2023-04-23T21:31:28.318Z,100.00
2023-04-23T21:33:57.148Z,100.00
2023-04-23T21:36:24.586Z,100.00
2023-04-23T21:38:53.004Z,100.00
2023-04-23T21:41:20.598Z,100.00
2023-04-23T21:43:48.131Z,100.00
2023-04-23T21:46:16.193Z,100.00
2023-04-23T21:48:43.758Z,100.00
2023-04-23T21:51:13.673Z,100.00
2023-04-23T21:53:41.220Z,100.00
2023-04-23T21:56:08.760Z,100.00
2023-04-23T21:58:36.275Z,100.00
2023-04-23T22:01:03.962Z,100.00
2023-04-23T22:03:38.744Z,100.00
2023-04-23T22:06:09.415Z,100.00
2023-04-23T22:08:39.398Z,100.00
2023-04-23T22:11:07.916Z,100.00
2023-04-23T22:13:36.081Z,100.00
2023-04-23T22:16:06.579Z,100.00
2023-04-23T22:18:38.769Z,100.00
2023-04-23T22:21:06.462Z,100.00
2023-04-23T22:23:34.020Z,100.00
2023-04-23T22:26:02.851Z,100.00
2023-04-23T22:28:30.337Z,100.00
2023-04-23T22:30:57.850Z,100.00
2023-04-23T22:33:26.452Z,100.00
2023-04-23T22:35:54.241Z,100.00
2023-04-23T22:38:21.869Z,100.00
2023-04-23T22:40:49.358Z,100.00
2023-04-23T22:43:18.161Z,100.00
2023-04-23T22:45:45.706Z,100.00
2023-04-23T22:48:13.267Z,100.00
2023-04-23T22:50:42.635Z,100.00
2023-04-23T22:53:10.139Z,100.00
2023-04-23T22:55:37.786Z,100.00
2023-04-23T22:58:05.326Z,100.00
2023-04-23T23:00:34.185Z,100.00
2023-04-23T23:03:01.786Z,100.00
2023-04-23T23:05:29.401Z,100.00
2023-04-23T23:07:56.973Z,100.00
2023-04-23T23:10:24.565Z,100.00
2023-04-23T23:12:52.497Z,100.00
2023-04-23T23:15:20.001Z,100.00
2023-04-23T23:17:48.857Z,100.00
2023-04-23T23:20:16.372Z,100.00
2023-04-23T23:22:43.949Z,100.00
2023-04-23T23:25:11.715Z,100.00
2023-04-23T23:27:39.235Z,100.00
2023-04-23T23:30:09.447Z,100.00
2023-04-23T23:32:37.368Z,100.00
2023-04-23T23:35:08.132Z,100.00
2023-04-23T23:37:35.996Z,100.00
2023-04-23T23:40:05.476Z,100.00
2023-04-23T23:42:32.987Z,100.00
2023-04-23T23:45:00.461Z,100.00
2023-04-23T23:47:28.021Z,100.00
2023-04-23T23:49:55.590Z,100.00
2023-04-23T23:52:24.402Z,100.00
2023-04-23T23:54:51.911Z,100.00
2023-04-23T23:57:19.402Z,100.00
2023-04-23T23:59:47.002Z,100.00
